createdAt,value
2023-02-03T00:01:51.495Z,7.68
2023-02-03T00:04:18.475Z,8.77
2023-02-03T00:06:45.939Z,9.00
2023-02-03T00:09:13.291Z,8.65
2023-02-03T00:11:40.266Z,7.72
2023-02-03T00:14:08.065Z,9.70
2023-02-03T00:16:36.156Z,6.72
2023-02-03T00:19:03.792Z,9.85
2023-02-03T00:21:30.803Z,8.68
2023-02-03T00:23:57.846Z,9.20
2023-02-03T00:26:26.141Z,7.40
2023-02-03T00:28:53.155Z,9.23
2023-02-03T00:31:22.992Z,9.95
2023-02-03T00:33:57.496Z,7.65
2023-02-03T00:36:26.089Z,8.02
2023-02-03T00:38:53.659Z,7.87
2023-02-03T00:41:22.014Z,11.20
2023-02-03T00:43:49.819Z,9.13
2023-02-03T00:46:17.039Z,9.68
2023-02-03T00:48:44.142Z,8.43
2023-02-03T00:51:11.046Z,9.07
2023-02-03T00:53:38.258Z,7.88
2023-02-03T00:56:12.537Z,8.50
2023-02-03T00:58:40.870Z,12.15
2023-02-03T01:01:08.577Z,9.25
2023-02-03T01:03:35.690Z,10.02
2023-02-03T01:06:21.742Z,9.00
2023-02-03T01:08:49.047Z,10.27
2023-02-03T01:11:19.806Z,10.30
2023-02-03T01:13:49.115Z,9.73
2023-02-03T01:16:18.847Z,8.88
2023-02-03T01:18:46.948Z,7.70
2023-02-03T01:21:25.836Z,7.45
2023-02-03T01:23:53.929Z,7.40
2023-02-03T01:26:22.842Z,7.68
2023-02-03T01:28:58.443Z,6.68
2023-02-03T01:31:28.791Z,9.20
2023-02-03T01:33:56.763Z,5.80
2023-02-03T01:36:26.872Z,7.35
2023-02-03T01:38:54.665Z,4.40
2023-02-03T01:41:24.880Z,5.75
2023-02-03T01:43:54.713Z,6.35
2023-02-03T01:46:30.289Z,4.70
2023-02-03T01:49:07.353Z,6.22
2023-02-03T01:51:35.915Z,5.25
2023-02-03T01:54:03.942Z,6.68
2023-02-03T01:56:36.563Z,3.75
2023-02-03T01:59:03.582Z,6.30
2023-02-03T02:01:31.950Z,2.83
2023-02-03T02:04:03.013Z,4.88
2023-02-03T02:06:30.559Z,6.50
2023-02-03T02:09:00.704Z,4.22
2023-02-03T02:11:28.403Z,4.95
2023-02-03T02:14:00.439Z,5.88
2023-02-03T02:17:04.410Z,5.25
2023-02-03T02:19:37.268Z,8.60
2023-02-03T02:22:28.660Z,4.45
2023-02-03T02:25:18.689Z,4.68
2023-02-03T02:28:16.847Z,5.80
2023-02-03T02:30:56.148Z,6.97
2023-02-03T02:33:44.307Z,5.93
2023-02-03T02:36:34.818Z,8.10
2023-02-03T02:39:14.366Z,5.18
2023-02-03T02:41:50.131Z,5.00
2023-02-03T02:44:25.755Z,5.95
2023-02-03T02:46:55.689Z,6.00
2023-02-03T02:49:42.799Z,6.00
2023-02-03T02:52:14.177Z,5.60
2023-02-03T02:54:48.118Z,8.07
2023-02-03T02:57:18.972Z,6.50
2023-02-03T03:02:13.864Z,4.85
2023-02-03T03:04:43.543Z,7.47
2023-02-03T03:07:22.863Z,5.90
2023-02-03T03:10:03.947Z,5.22
2023-02-03T03:12:42.685Z,5.40
2023-02-03T03:15:21.129Z,7.15
2023-02-03T03:18:01.804Z,4.90
2023-02-03T03:20:30.325Z,5.30
2023-02-03T03:23:06.921Z,5.97
2023-02-03T03:25:41.758Z,4.32
2023-02-03T03:28:14.055Z,7.47
2023-02-03T03:30:41.436Z,4.95
2023-02-03T03:33:09.752Z,4.45
2023-02-03T03:35:49.378Z,5.17
2023-02-03T03:38:33.760Z,6.63
2023-02-03T03:41:21.488Z,3.00
2023-02-03T03:43:50.067Z,4.97
2023-02-03T03:46:21.884Z,6.03
2023-02-03T03:49:01.279Z,6.38
2023-02-03T03:54:07.933Z,4.47
2023-02-03T03:56:41.859Z,3.00
2023-02-03T03:59:12.384Z,4.32
2023-02-03T04:01:40.086Z,4.45
2023-02-03T04:04:09.626Z,3.53
2023-02-03T04:06:39.176Z,2.47
2023-02-03T04:09:06.740Z,3.83
2023-02-03T04:11:52.344Z,5.75
2023-02-03T04:14:19.319Z,3.45
2023-02-03T04:16:46.280Z,6.00
2023-02-03T04:19:13.274Z,6.40
2023-02-03T04:21:40.194Z,4.68
2023-02-03T04:24:07.778Z,5.03
2023-02-03T04:26:34.617Z,8.25
2023-02-03T04:29:01.776Z,5.70
2023-02-03T04:31:28.804Z,6.82
2023-02-03T04:33:55.746Z,5.20
2023-02-03T04:36:22.965Z,6.70
2023-02-03T04:38:50.412Z,10.27
2023-02-03T04:41:18.105Z,16.63
2023-02-03T04:43:44.986Z,8.05
2023-02-03T04:46:12.110Z,8.60
2023-02-03T04:48:39.043Z,6.68
2023-02-03T04:51:08.257Z,7.00
2023-02-03T04:53:35.596Z,6.97
2023-02-03T04:56:02.921Z,6.15
2023-02-03T04:58:29.915Z,10.07
2023-02-03T05:00:57.213Z,7.53
2023-02-03T05:03:26.088Z,9.07
2023-02-03T05:05:57.111Z,6.70
2023-02-03T05:08:24.425Z,8.82
2023-02-03T05:10:51.409Z,7.55
2023-02-03T05:13:18.523Z,7.22
2023-02-03T05:15:45.387Z,7.35
2023-02-03T05:18:12.428Z,8.52
2023-02-03T05:20:39.345Z,7.55
2023-02-03T05:23:06.983Z,9.13
2023-02-03T05:25:34.498Z,9.25
2023-02-03T05:28:01.682Z,9.63
2023-02-03T05:30:28.996Z,6.82
2023-02-03T05:32:56.035Z,7.78
2023-02-03T05:35:23.137Z,10.43
2023-02-03T05:37:50.031Z,8.48
2023-02-03T05:40:35.533Z,9.38
2023-02-03T05:43:02.546Z,8.23
2023-02-03T05:45:29.622Z,6.50
2023-02-03T05:47:57.278Z,9.88
2023-02-03T05:50:24.386Z,7.57
2023-02-03T05:52:51.427Z,11.65
2023-02-03T05:55:18.355Z,9.38
2023-02-03T05:57:46.470Z,9.70
2023-02-03T06:00:14.901Z,9.27
2023-02-03T06:02:42.107Z,7.40
2023-02-03T06:05:09.368Z,8.23
2023-02-03T06:07:36.500Z,9.43
2023-02-03T06:10:03.638Z,7.13
2023-02-03T06:12:30.742Z,6.22
2023-02-03T06:14:57.544Z,7.78
2023-02-03T06:17:24.993Z,7.38
2023-02-03T06:19:52.326Z,9.23
2023-02-03T06:22:19.160Z,7.53
2023-02-03T06:24:48.087Z,9.00
2023-02-03T06:27:16.147Z,8.35
2023-02-03T06:29:43.232Z,8.25
2023-02-03T06:32:10.091Z,7.63
2023-02-03T06:34:36.939Z,7.03
2023-02-03T06:37:05.015Z,21.25
2023-02-03T06:39:31.915Z,8.52
2023-02-03T06:41:58.977Z,10.07
2023-02-03T06:44:26.080Z,7.82
2023-02-03T06:46:53.206Z,8.20
2023-02-03T06:49:20.028Z,5.47
2023-02-03T06:51:47.036Z,10.38
2023-02-03T06:54:14.661Z,6.32
2023-02-03T06:56:42.916Z,4.97
2023-02-03T06:59:10.235Z,7.15
2023-02-03T07:01:37.880Z,5.70
2023-02-03T07:04:05.750Z,6.35
2023-02-03T07:06:34.289Z,5.80
2023-02-03T07:09:03.290Z,4.38
2023-02-03T07:11:30.622Z,5.13
2023-02-03T07:13:57.815Z,6.78
2023-02-03T07:16:24.706Z,6.22
2023-02-03T07:18:51.700Z,11.23
2023-02-03T07:21:19.482Z,8.52
2023-02-03T07:23:50.032Z,6.88
2023-02-03T07:26:17.768Z,9.68
2023-02-03T07:28:45.475Z,8.68
2023-02-03T07:31:12.436Z,13.25
2023-02-03T07:33:39.968Z,10.80
2023-02-03T07:36:08.461Z,6.85
2023-02-03T07:38:35.615Z,8.88
2023-02-03T07:41:02.591Z,7.55
2023-02-03T07:43:29.685Z,9.18
2023-02-03T07:45:56.511Z,8.07
2023-02-03T07:48:23.981Z,3.50
2023-02-03T07:50:52.863Z,5.88
2023-02-03T07:53:19.961Z,8.05
2023-02-03T07:55:46.916Z,8.02
2023-02-03T07:58:15.047Z,5.38
2023-02-03T08:01:00.501Z,9.88
2023-02-03T08:03:27.473Z,6.78
2023-02-03T08:05:54.539Z,8.27
2023-02-03T08:08:21.696Z,4.55
2023-02-03T08:10:48.565Z,5.30
2023-02-03T08:13:15.553Z,6.03
2023-02-03T08:15:42.485Z,5.72
2023-02-03T08:18:10.067Z,5.43
2023-02-03T08:20:37.240Z,6.97
2023-02-03T08:23:04.651Z,5.43
2023-02-03T08:25:32.011Z,5.40
2023-02-03T08:27:59.581Z,8.02
2023-02-03T08:30:45.654Z,7.00
2023-02-03T08:33:12.830Z,6.50
2023-02-03T08:35:40.191Z,10.85
2023-02-03T08:38:07.056Z,9.63
2023-02-03T08:40:34.147Z,12.55
2023-02-03T08:43:01.123Z,8.63
2023-02-03T08:45:28.085Z,9.70
2023-02-03T08:47:55.411Z,7.88
2023-02-03T08:50:22.279Z,5.03
2023-02-03T08:52:49.601Z,8.75
2023-02-03T08:55:16.736Z,5.47
2023-02-03T08:57:44.329Z,6.85
2023-02-03T09:00:11.905Z,6.90
2023-02-03T09:02:38.811Z,6.07
2023-02-03T09:05:06.264Z,6.40
2023-02-03T09:07:33.230Z,6.82
2023-02-03T09:10:00.179Z,8.00
2023-02-03T09:12:27.190Z,6.57
2023-02-03T09:14:54.079Z,6.10
2023-02-03T09:17:21.063Z,6.18
2023-02-03T09:19:47.968Z,4.63
2023-02-03T09:22:15.051Z,6.22
2023-02-03T09:24:42.106Z,8.30
2023-02-03T09:27:08.970Z,8.27
2023-02-03T09:29:35.851Z,3.08
2023-02-03T09:32:07.872Z,3.50
2023-02-03T09:34:34.750Z,7.18
2023-02-03T09:37:02.009Z,6.13
2023-02-03T09:39:29.018Z,3.70
2023-02-03T09:42:14.407Z,4.95
2023-02-03T09:45:10.003Z,6.20
2023-02-03T09:47:41.267Z,4.50
2023-02-03T09:50:18.198Z,5.15
2023-02-03T09:52:45.946Z,4.78
2023-02-03T09:55:35.742Z,5.07
2023-02-03T09:58:12.536Z,5.43
2023-02-03T10:00:48.150Z,6.05
2023-02-03T10:03:23.118Z,3.67
2023-02-03T10:06:08.165Z,5.00
2023-02-03T10:09:03.530Z,5.00
2023-02-03T10:11:30.654Z,4.97
2023-02-03T10:14:35.959Z,6.13
2023-02-03T10:17:30.402Z,4.65
2023-02-03T10:20:09.486Z,3.95
2023-02-03T10:22:45.921Z,5.13
2023-02-03T10:25:16.198Z,5.50
2023-02-03T10:27:44.099Z,6.68
2023-02-03T10:30:21.695Z,6.03
2023-02-03T10:33:00.465Z,4.03
2023-02-03T10:35:37.008Z,5.22
2023-02-03T10:38:10.004Z,6.60
2023-02-03T10:40:37.379Z,4.65
2023-02-03T10:43:22.883Z,5.57
2023-02-03T10:45:50.042Z,7.43
2023-02-03T10:48:19.115Z,5.20
2023-02-03T10:50:50.357Z,6.85
2023-02-03T10:53:25.124Z,6.78
2023-02-03T10:56:20.517Z,5.82
2023-02-03T10:58:56.749Z,4.05
2023-02-03T11:01:26.692Z,5.75
2023-02-03T11:04:05.884Z,4.38
2023-02-03T11:06:34.139Z,5.30
2023-02-03T11:09:01.056Z,5.30
2023-02-03T11:11:34.104Z,6.57
2023-02-03T11:14:04.455Z,9.35
2023-02-03T11:16:35.083Z,5.43
2023-02-03T11:19:17.059Z,5.13
2023-02-03T11:21:50.908Z,4.07
2023-02-03T11:24:27.991Z,3.03
2023-02-03T11:26:59.454Z,3.88
2023-02-03T11:29:29.373Z,4.75
2023-02-03T11:32:01.885Z,4.15
2023-02-03T11:34:33.344Z,5.35
2023-02-03T11:37:33.536Z,5.18
2023-02-03T11:40:12.723Z,5.40
2023-02-03T11:42:41.872Z,7.80
2023-02-03T11:45:17.862Z,10.32
2023-02-03T11:48:01.266Z,4.88
2023-02-03T11:50:40.708Z,5.22
2023-02-03T11:53:25.736Z,6.97
2023-02-03T11:55:58.825Z,4.25
2023-02-03T11:58:29.075Z,3.47
2023-02-03T12:01:08.811Z,7.57
2023-02-03T12:03:50.917Z,5.07
2023-02-03T12:06:41.095Z,5.05
2023-02-03T12:09:25.253Z,8.90
2023-02-03T12:12:07.697Z,6.07
2023-02-03T12:14:43.551Z,2.80
2023-02-03T12:17:10.485Z,3.58
2023-02-03T12:20:09.862Z,5.10
2023-02-03T12:22:48.647Z,4.50
2023-02-03T12:25:18.886Z,3.42
2023-02-03T12:28:20.690Z,4.40
2023-02-03T12:31:04.481Z,5.22
2023-02-03T12:33:37.846Z,2.60
2023-02-03T12:36:18.193Z,5.47
2023-02-03T12:38:52.715Z,5.95
2023-02-03T12:41:30.624Z,8.73
2023-02-03T12:44:08.544Z,16.25
2023-02-03T12:46:38.326Z,9.25
2023-02-03T12:49:27.437Z,4.65
2023-02-03T12:52:01.632Z,3.33
2023-02-03T12:54:31.315Z,5.72
2023-02-03T12:57:10.834Z,3.72
2023-02-03T12:59:40.568Z,4.68
2023-02-03T13:02:30.409Z,4.28
2023-02-03T13:05:05.837Z,3.28
2023-02-03T13:07:49.589Z,4.32
2023-02-03T13:10:28.308Z,5.90
2023-02-03T13:12:58.185Z,4.40
2023-02-03T13:15:30.723Z,9.70
2023-02-03T13:18:01.781Z,11.25
2023-02-03T13:20:31.814Z,8.35
2023-02-03T13:22:58.995Z,7.45
2023-02-03T13:25:38.149Z,4.85
2023-02-03T13:28:26.446Z,6.50
2023-02-03T13:31:08.944Z,5.37
2023-02-03T13:34:08.332Z,6.82
2023-02-03T13:37:20.589Z,7.80
2023-02-03T13:39:50.396Z,6.60
2023-02-03T13:42:30.299Z,9.18
2023-02-03T13:44:59.889Z,6.93
2023-02-03T13:50:02.877Z,7.07
2023-02-03T13:52:47.594Z,7.18
2023-02-03T13:55:33.895Z,6.18
2023-02-03T13:58:01.591Z,6.55
2023-02-03T14:00:43.938Z,9.00
2023-02-03T14:03:18.413Z,7.65
2023-02-03T14:05:49.534Z,9.85
2023-02-03T14:08:25.647Z,9.80
2023-02-03T14:11:30.777Z,9.38
2023-02-03T14:14:09.831Z,11.45
2023-02-03T14:16:40.784Z,9.82
2023-02-03T14:19:34.029Z,7.20
2023-02-03T14:22:02.754Z,7.80
2023-02-03T14:24:33.708Z,9.43
2023-02-03T14:27:03.914Z,9.90
2023-02-03T14:29:36.616Z,6.47
2023-02-03T14:32:09.355Z,7.60
2023-02-03T14:34:39.226Z,7.75
2023-02-03T14:37:30.179Z,7.90
2023-02-03T14:39:59.946Z,8.65
2023-02-03T14:43:11.042Z,11.63
2023-02-03T14:46:08.722Z,8.75
2023-02-03T14:49:29.667Z,8.25
2023-02-03T14:52:11.822Z,8.60
2023-02-03T14:54:38.816Z,7.03
2023-02-03T14:57:35.630Z,6.57
2023-02-03T15:00:08.352Z,6.55
2023-02-03T15:02:36.214Z,7.85
2023-02-03T15:05:12.138Z,9.50
2023-02-03T15:07:48.579Z,11.13
2023-02-03T15:10:19.827Z,9.90
2023-02-03T15:12:52.167Z,6.45
2023-02-03T15:15:24.624Z,8.80
2023-02-03T15:17:54.976Z,6.55
2023-02-03T15:20:34.506Z,7.97
2023-02-03T15:25:31.992Z,10.27
2023-02-03T15:28:13.575Z,12.18
2023-02-03T15:30:41.567Z,6.68
2023-02-03T15:33:18.673Z,6.03
2023-02-03T15:35:48.783Z,8.27
2023-02-03T15:38:24.304Z,7.10
2023-02-03T15:40:58.018Z,9.10
2023-02-03T15:43:28.100Z,7.97
2023-02-03T15:46:02.452Z,9.45
2023-02-03T15:48:43.245Z,6.97
2023-02-03T15:51:19.959Z,6.68
2023-02-03T15:53:59.008Z,5.85
2023-02-03T15:56:44.531Z,6.47
2023-02-03T15:59:22.279Z,11.95
2023-02-03T16:01:49.745Z,8.60
2023-02-03T16:04:16.957Z,6.75
2023-02-03T16:06:48.313Z,7.63
2023-02-03T16:09:32.369Z,18.00
2023-02-03T16:12:23.733Z,8.48
2023-02-03T16:14:52.079Z,10.00
2023-02-03T16:17:26.291Z,13.63
2023-02-03T16:20:13.456Z,15.93
2023-02-03T16:23:00.961Z,13.77
2023-02-03T16:25:31.429Z,23.13
2023-02-03T16:28:32.231Z,16.73
2023-02-03T16:31:18.254Z,10.75
2023-02-03T16:34:08.736Z,8.07
2023-02-03T16:36:59.983Z,7.20
2023-02-03T16:39:45.923Z,11.70
2023-02-03T16:42:37.372Z,10.80
2023-02-03T16:45:31.723Z,13.75
2023-02-03T16:48:17.817Z,28.13
2023-02-03T16:50:58.175Z,11.73
2023-02-03T16:53:30.207Z,14.90
2023-02-03T16:56:00.282Z,16.15
2023-02-03T16:58:28.788Z,19.55
2023-02-03T17:00:57.640Z,19.42
2023-02-03T17:03:27.748Z,17.05
2023-02-03T17:05:56.191Z,19.60
2023-02-03T17:08:26.338Z,24.70
2023-02-03T17:10:53.434Z,15.20
2023-02-03T17:13:23.265Z,20.38
2023-02-03T17:15:54.669Z,17.58
2023-02-03T17:18:22.121Z,22.10
2023-02-03T17:20:49.188Z,17.77
2023-02-03T17:23:17.084Z,12.80
2023-02-03T17:25:46.383Z,11.02
2023-02-03T17:30:41.268Z,16.15
2023-02-03T17:33:12.410Z,12.32
2023-02-03T17:35:44.688Z,11.95
2023-02-03T17:38:14.610Z,16.00
2023-02-03T17:54:32.432Z,8.73
2023-02-03T17:56:59.432Z,11.68
2023-02-03T17:59:26.387Z,9.98
2023-02-03T18:01:53.615Z,34.08
2023-02-03T18:04:20.575Z,27.67
2023-02-03T18:06:47.579Z,12.25
2023-02-03T18:09:16.656Z,20.63
2023-02-03T18:11:45.813Z,19.65
2023-02-03T18:14:14.288Z,29.42
2023-02-03T18:16:42.651Z,22.37
2023-02-03T18:19:14.380Z,28.95
2023-02-03T18:21:43.163Z,23.75
2023-02-03T18:24:12.253Z,45.30
2023-02-03T18:26:49.640Z,18.95
2023-02-03T18:29:17.311Z,30.23
2023-02-03T18:31:44.538Z,47.53
2023-02-03T18:34:12.016Z,47.45
2023-02-03T18:39:06.956Z,24.40
2023-02-03T18:41:34.743Z,18.70
2023-02-03T18:44:02.197Z,23.75
2023-02-03T18:46:31.661Z,31.55
2023-02-03T18:48:59.524Z,27.98
2023-02-03T18:51:26.924Z,24.45
2023-02-03T18:53:59.298Z,17.17
2023-02-03T18:56:34.833Z,17.17
2023-02-03T18:59:11.029Z,21.67
2023-02-03T19:01:39.199Z,21.35
2023-02-03T19:04:06.596Z,18.93
2023-02-03T19:06:34.365Z,22.38
2023-02-03T19:09:02.276Z,21.50
2023-02-03T19:11:29.200Z,26.30
2023-02-03T19:13:56.322Z,25.65
2023-02-03T19:16:23.206Z,26.77
2023-02-03T19:18:50.212Z,19.25
2023-02-03T19:21:17.490Z,20.95
2023-02-03T19:23:45.083Z,24.73
2023-02-03T19:26:12.560Z,23.83
2023-02-03T19:28:41.261Z,23.77
2023-02-03T19:31:12.398Z,26.48
2023-02-03T19:33:39.564Z,26.98
2023-02-03T19:36:09.641Z,25.70
2023-02-03T19:38:37.029Z,25.35
2023-02-03T19:41:04.437Z,14.32
2023-02-03T19:43:32.327Z,18.83
2023-02-03T19:45:59.808Z,20.55
2023-02-03T19:48:26.790Z,24.20
2023-02-03T19:50:53.824Z,23.08
2023-02-03T19:53:21.629Z,27.88
2023-02-03T19:55:50.104Z,26.70
2023-02-03T19:58:17.043Z,28.77
2023-02-03T20:00:44.375Z,27.30
2023-02-03T20:03:11.247Z,23.05
2023-02-03T20:05:38.503Z,30.10
2023-02-03T20:08:06.117Z,24.25
2023-02-03T20:10:33.308Z,25.00
2023-02-03T20:13:00.964Z,21.90
2023-02-03T20:15:28.142Z,23.55
2023-02-03T20:17:55.622Z,27.95
2023-02-03T20:20:23.153Z,25.42
2023-02-03T20:22:50.473Z,25.65
2023-02-03T20:25:17.481Z,22.42
2023-02-03T20:27:44.683Z,23.70
2023-02-03T20:30:12.191Z,26.67
2023-02-03T20:32:39.712Z,22.70
2023-02-03T20:35:07.525Z,25.08
2023-02-03T20:37:36.404Z,25.63
2023-02-03T20:40:12.287Z,26.35
2023-02-03T20:42:39.348Z,23.08
2023-02-03T20:45:26.560Z,27.25
2023-02-03T20:47:53.624Z,25.63
2023-02-03T20:50:28.920Z,25.85
2023-02-03T20:52:58.891Z,24.75
2023-02-03T20:55:26.159Z,23.33
2023-02-03T20:57:55.158Z,25.58
2023-02-03T21:00:26.505Z,23.27
2023-02-03T21:03:12.475Z,25.67
2023-02-03T21:05:42.328Z,28.92
2023-02-03T21:08:16.725Z,23.55
2023-02-03T21:10:44.926Z,24.48
2023-02-03T21:13:33.634Z,25.25
2023-02-03T21:16:04.596Z,21.27
2023-02-03T21:18:43.387Z,24.05
2023-02-03T21:21:27.951Z,23.75
2023-02-03T21:23:55.524Z,24.38
2023-02-03T21:26:22.417Z,21.27
2023-02-03T21:28:54.900Z,23.65
2023-02-03T21:31:28.990Z,24.63
2023-02-03T21:33:58.554Z,24.60
2023-02-03T21:36:28.189Z,25.83
2023-02-03T21:38:57.576Z,20.98
2023-02-03T21:43:55.787Z,25.15
2023-02-03T21:46:26.570Z,25.27
2023-02-03T21:48:58.572Z,28.23
2023-02-03T21:51:28.242Z,26.10
2023-02-03T21:53:59.741Z,24.30
2023-02-03T21:56:43.279Z,26.17
2023-02-03T21:59:26.130Z,25.23
2023-02-03T22:01:57.746Z,29.15
2023-02-03T22:04:28.414Z,23.65
2023-02-03T22:06:56.004Z,28.02
2023-02-03T22:09:24.821Z,23.20
2023-02-03T22:11:52.630Z,25.42
2023-02-03T22:14:21.154Z,22.42
2023-02-03T22:16:48.533Z,31.37
2023-02-03T22:19:17.677Z,24.05
2023-02-03T22:21:45.204Z,13.93
2023-02-03T22:24:12.161Z,10.10
2023-02-03T22:26:39.080Z,11.50
2023-02-03T22:29:06.117Z,9.32
2023-02-03T22:31:33.471Z,9.57
2023-02-03T22:34:00.433Z,10.40
2023-02-03T22:36:27.343Z,10.15
2023-02-03T22:38:54.438Z,8.27
2023-02-03T22:41:21.660Z,10.73
2023-02-03T22:43:48.561Z,12.20
2023-02-03T22:46:15.682Z,13.27
2023-02-03T22:48:42.605Z,10.93
2023-02-03T22:51:09.593Z,12.82
2023-02-03T22:53:36.722Z,12.57
2023-02-03T22:56:03.898Z,11.65
2023-02-03T22:58:30.895Z,11.98
2023-02-03T23:00:57.719Z,9.82
2023-02-03T23:03:24.791Z,14.98
2023-02-03T23:05:52.059Z,13.32
2023-02-03T23:08:19.045Z,12.20
2023-02-03T23:10:48.610Z,12.02
2023-02-03T23:13:15.952Z,14.10
2023-02-03T23:15:42.882Z,13.43
2023-02-03T23:18:09.994Z,13.40
2023-02-03T23:20:37.068Z,13.27
2023-02-03T23:23:04.107Z,12.45
2023-02-03T23:25:30.972Z,13.40
2023-02-03T23:27:58.234Z,13.95
2023-02-03T23:30:25.255Z,12.68
2023-02-03T23:32:52.336Z,11.80
2023-02-03T23:35:37.800Z,12.73
2023-02-03T23:38:04.710Z,12.75
2023-02-03T23:40:32.158Z,13.32
2023-02-03T23:42:59.404Z,31.38
2023-02-03T23:45:26.476Z,13.80
2023-02-03T23:47:53.420Z,14.60
2023-02-03T23:50:20.716Z,12.25
2023-02-03T23:52:48.137Z,13.23
2023-02-03T23:55:17.877Z,13.90
2023-02-03T23:57:45.336Z,13.05
